createdAt,value
2023-02-19T00:00:40.632Z,100974.91
2023-02-19T00:05:42.662Z,100970.44
2023-02-19T00:10:44.867Z,100969.59
2023-02-19T00:21:11.516Z,100959.84
2023-02-19T00:26:18.475Z,100954.56
2023-02-19T00:31:24.643Z,100955.47
2023-02-19T00:36:28.159Z,100944.88
2023-02-19T00:41:30.569Z,100948.31
2023-02-19T00:46:36.021Z,100946.53
2023-02-19T00:51:38.922Z,100936.84
2023-02-19T00:56:41.304Z,100928.16
2023-02-19T01:01:45.142Z,100923.78
2023-02-19T01:06:47.340Z,100921.88
2023-02-19T01:11:49.437Z,100911.28
2023-02-19T01:16:52.862Z,100889.38
2023-02-19T01:21:55.345Z,100873.50
2023-02-19T01:26:57.767Z,100856.78
2023-02-19T01:32:01.542Z,100869.06
2023-02-19T01:37:03.690Z,100871.66
2023-02-19T01:42:06.470Z,100868.97
2023-02-19T01:47:09.971Z,100866.44
2023-02-19T01:52:15.746Z,100859.38
2023-02-19T01:57:23.079Z,100861.13
2023-02-19T02:02:26.652Z,100849.69
2023-02-19T02:07:28.639Z,100847.91
2023-02-19T02:12:30.671Z,100844.34
2023-02-19T02:17:44.195Z,100833.66
2023-02-19T02:22:53.212Z,100845.09
2023-02-19T02:33:44.741Z,100823.13
2023-02-19T02:44:34.373Z,100809.41
2023-02-19T02:49:37.940Z,100812.75
2023-02-19T02:54:40.120Z,100812.75
2023-02-19T02:59:43.622Z,100807.41
2023-02-19T03:04:52.835Z,100811.84
2023-02-19T03:09:57.103Z,100814.34
2023-02-19T03:15:04.632Z,100815.22
2023-02-19T03:20:14.158Z,100819.44
2023-02-19T03:25:28.530Z,100827.94
2023-02-19T03:36:22.830Z,100836.28
2023-02-19T03:41:31.192Z,100842.25
2023-02-19T03:46:42.588Z,100848.31
2023-02-19T03:51:51.810Z,100856.69
2023-02-19T03:57:00.605Z,100861.88
2023-02-19T04:02:34.366Z,100875.72
2023-02-19T04:07:42.691Z,100873.00
2023-02-19T04:12:50.337Z,100874.34
2023-02-19T04:17:56.754Z,100893.72
2023-02-19T04:23:00.353Z,100901.44
2023-02-19T04:28:02.852Z,100901.94
2023-02-19T04:33:05.128Z,100904.38
2023-02-19T04:38:08.465Z,100913.91
2023-02-19T04:43:11.328Z,100916.44
2023-02-19T04:48:13.484Z,100917.97
2023-02-19T04:53:17.019Z,100924.88
2023-02-19T04:58:20.452Z,100929.31
2023-02-19T05:03:22.182Z,100931.16
2023-02-19T05:08:25.520Z,100925.88
2023-02-19T05:13:28.102Z,100927.34
2023-02-19T05:18:31.626Z,100942.09
2023-02-19T05:23:39.711Z,100940.38
2023-02-19T05:28:41.853Z,100938.53
2023-02-19T05:33:44.839Z,100941.84
2023-02-19T05:38:51.929Z,100942.72
2023-02-19T05:43:54.788Z,100946.22
2023-02-19T05:48:57.003Z,100943.69
2023-02-19T05:54:00.517Z,100948.00
2023-02-19T05:59:05.373Z,100959.41
2023-02-19T06:04:07.420Z,100970.75
2023-02-19T06:09:11.813Z,100971.44
2023-02-19T06:14:14.503Z,100967.97
2023-02-19T06:19:17.074Z,100974.22
2023-02-19T06:24:20.716Z,100992.41
2023-02-19T06:29:22.794Z,100992.66
2023-02-19T06:34:25.342Z,101000.69
2023-02-19T06:39:28.911Z,101011.09
2023-02-19T06:44:36.993Z,101012.78
2023-02-19T06:49:48.619Z,101023.13
2023-02-19T06:54:51.961Z,101048.88
2023-02-19T06:59:53.948Z,101052.19
2023-02-19T07:04:56.082Z,101064.44
2023-02-19T07:09:59.267Z,101067.41
2023-02-19T07:15:01.288Z,101077.03
2023-02-19T07:20:04.091Z,101091.34
2023-02-19T07:25:07.809Z,101111.00
2023-02-19T07:30:10.855Z,101099.09
2023-02-19T07:35:13.282Z,101113.97
2023-02-19T07:40:16.497Z,101113.69
2023-02-19T07:45:18.612Z,101125.34
2023-02-19T07:50:20.683Z,101126.91
2023-02-19T07:55:23.800Z,101137.31
2023-02-19T08:00:26.557Z,101155.03
2023-02-19T08:05:30.251Z,101159.44
2023-02-19T08:10:33.457Z,101171.88
2023-02-19T08:15:35.879Z,101184.34
2023-02-19T08:20:37.682Z,101193.25
2023-02-19T08:25:41.892Z,101200.59
2023-02-19T08:30:45.897Z,101206.75
2023-02-19T08:35:49.230Z,101226.28
2023-02-19T08:40:52.843Z,101237.81
2023-02-19T08:46:05.337Z,101244.34
2023-02-19T08:51:11.571Z,101265.97
2023-02-19T08:56:32.187Z,101271.69
2023-02-19T09:01:34.859Z,101268.19
2023-02-19T09:06:39.151Z,101277.88
2023-02-19T09:11:43.331Z,101279.34
2023-02-19T09:16:45.241Z,101281.22
2023-02-19T09:21:47.423Z,101286.91
2023-02-19T09:26:51.080Z,101295.75
2023-02-19T09:31:56.182Z,101301.81
2023-02-19T09:36:58.249Z,101319.38
2023-02-19T09:42:04.626Z,101321.88
2023-02-19T09:47:13.566Z,101322.53
2023-02-19T09:52:19.525Z,101331.00
2023-02-19T09:57:24.478Z,101340.63
2023-02-19T10:02:27.351Z,101342.94
2023-02-19T10:07:37.210Z,101348.00
2023-02-19T10:12:45.701Z,101349.53
2023-02-19T10:18:03.221Z,101365.66
2023-02-19T10:23:08.259Z,101374.78
2023-02-19T10:28:15.521Z,101389.28
2023-02-19T10:33:17.314Z,101391.56
2023-02-19T10:38:36.798Z,101406.16
2023-02-19T10:43:43.336Z,101412.06
2023-02-19T10:48:50.049Z,101422.19
2023-02-19T10:54:04.706Z,101416.69
2023-02-19T10:59:24.609Z,101434.16
2023-02-19T11:04:28.381Z,101442.69
2023-02-19T11:09:37.425Z,101461.44
2023-02-19T11:14:44.130Z,101461.81
2023-02-19T11:19:46.991Z,101466.78
2023-02-19T11:24:51.170Z,101463.47
2023-02-19T11:29:54.970Z,101468.22
2023-02-19T11:35:15.311Z,101474.91
2023-02-19T11:40:17.921Z,101492.50
2023-02-19T11:45:35.098Z,101488.22
2023-02-19T11:50:48.369Z,101476.50
2023-02-19T11:56:09.744Z,101470.53
2023-02-19T12:01:24.120Z,101488.47
2023-02-19T12:06:34.779Z,101492.88
2023-02-19T12:11:50.139Z,101488.94
2023-02-19T12:17:02.739Z,101501.56
2023-02-19T12:22:38.218Z,101499.28
2023-02-19T12:27:50.321Z,101492.97
2023-02-19T12:33:20.882Z,101509.47
2023-02-19T12:44:17.132Z,101519.28
2023-02-19T12:49:40.502Z,101519.31
2023-02-19T12:54:45.791Z,101520.44
2023-02-19T12:59:53.853Z,101544.34
2023-02-19T13:05:04.691Z,101543.25
2023-02-19T13:10:19.518Z,101543.72
2023-02-19T13:15:28.545Z,101547.31
2023-02-19T13:20:36.857Z,101560.56
2023-02-19T13:25:49.515Z,101559.00
2023-02-19T13:31:16.390Z,101552.88
2023-02-19T13:36:25.898Z,101559.13
2023-02-19T13:41:30.109Z,101550.13
2023-02-19T13:46:38.912Z,101551.34
2023-02-19T13:51:50.810Z,101567.16
2023-02-19T13:57:26.093Z,101572.22
2023-02-19T14:02:32.163Z,101583.25
2023-02-19T14:07:54.936Z,101585.13
2023-02-19T14:12:57.216Z,101588.25
2023-02-19T14:17:59.287Z,101612.22
2023-02-19T14:23:24.499Z,101609.97
2023-02-19T14:28:30.586Z,101605.53
2023-02-19T14:33:35.484Z,101603.66
2023-02-19T14:38:45.895Z,101608.03
2023-02-19T14:43:50.518Z,101601.22
2023-02-19T14:48:52.469Z,101614.91
2023-02-19T14:53:57.468Z,101613.78
2023-02-19T14:59:21.335Z,101631.25
2023-02-19T15:04:25.283Z,101632.31
2023-02-19T15:09:32.734Z,101639.25
2023-02-19T15:14:35.196Z,101640.34
2023-02-19T15:19:37.456Z,101638.00
2023-02-19T15:24:43.840Z,101637.75
2023-02-19T15:29:46.552Z,101636.09
2023-02-19T15:34:56.419Z,101635.72
2023-02-19T15:40:03.492Z,101640.00
2023-02-19T15:45:15.617Z,101636.06
2023-02-19T15:50:22.687Z,101655.91
2023-02-19T15:55:33.085Z,101670.47
2023-02-19T16:00:40.058Z,101665.00
2023-02-19T16:05:41.855Z,101666.53
2023-02-19T16:10:55.502Z,101686.59
2023-02-19T16:16:07.042Z,101687.38
2023-02-19T16:21:09.325Z,101686.84
2023-02-19T16:26:12.718Z,101705.03
2023-02-19T16:31:15.716Z,101707.84
2023-02-19T16:36:20.433Z,101710.19
2023-02-19T16:41:58.784Z,101720.56
2023-02-19T16:47:05.507Z,101731.13
2023-02-19T16:52:07.664Z,101736.59
2023-02-19T16:57:09.855Z,101741.31
2023-02-19T17:02:18.666Z,101741.88
2023-02-19T17:07:20.698Z,101754.56
2023-02-19T17:12:23.736Z,101742.38
2023-02-19T17:17:26.911Z,101740.81
2023-02-19T17:22:28.836Z,101742.78
2023-02-19T17:27:30.637Z,101738.59
2023-02-19T17:32:34.117Z,101748.56
2023-02-19T17:37:35.911Z,101757.09
2023-02-19T17:42:38.018Z,101767.91
2023-02-19T17:47:41.869Z,101771.66
2023-02-19T17:52:43.729Z,101781.19
2023-02-19T17:57:46.578Z,101765.31
2023-02-19T18:02:50.510Z,101764.88
2023-02-19T18:07:52.808Z,101783.97
2023-02-19T18:12:54.898Z,101783.56
2023-02-19T18:17:58.138Z,101785.25
2023-02-19T18:23:00.714Z,101790.19
2023-02-19T18:28:03.565Z,101806.47
2023-02-19T18:33:07.245Z,101795.38
2023-02-19T18:38:10.034Z,101804.06
2023-02-19T18:43:12.504Z,101807.66
2023-02-19T18:48:17.601Z,101807.13
2023-02-19T18:53:19.406Z,101809.56
2023-02-19T18:58:21.156Z,101817.59
2023-02-19T19:03:24.857Z,101823.53
2023-02-19T19:08:27.466Z,101814.25
2023-02-19T19:13:30.879Z,101812.66
2023-02-19T19:18:34.254Z,101804.06
2023-02-19T19:23:36.920Z,101811.06
2023-02-19T19:28:40.636Z,101809.03
2023-02-19T19:33:45.133Z,101801.47
2023-02-19T19:38:48.011Z,101787.31
2023-02-19T19:43:50.558Z,101798.13
2023-02-19T19:48:54.811Z,101798.50
2023-02-19T19:53:56.643Z,101801.03
2023-02-19T19:58:59.090Z,101797.81
2023-02-19T20:04:03.378Z,101806.63
2023-02-19T20:09:05.894Z,101796.38
2023-02-19T20:14:08.426Z,101807.56
2023-02-19T20:19:13.592Z,101816.16
2023-02-19T20:24:16.334Z,101819.53
2023-02-19T20:29:18.732Z,101819.84
2023-02-19T20:34:23.289Z,101835.31
2023-02-19T20:39:25.497Z,101828.69
2023-02-19T20:44:28.777Z,101828.25
2023-02-19T20:49:32.253Z,101835.03
2023-02-19T20:54:36.277Z,101820.94
2023-02-19T20:59:38.768Z,101822.13
2023-02-19T21:04:42.586Z,101820.63
2023-02-19T21:09:44.889Z,101841.38
2023-02-19T21:14:47.267Z,101835.84
2023-02-19T21:19:50.847Z,101826.91
2023-02-19T21:24:52.997Z,101817.78
2023-02-19T21:29:54.898Z,101806.03
2023-02-19T21:34:58.319Z,101798.78
2023-02-19T21:40:00.476Z,101788.59
2023-02-19T21:45:03.193Z,101790.28
2023-02-19T21:50:07.812Z,101785.97
2023-02-19T21:55:10.005Z,101783.50
2023-02-19T22:00:13.189Z,101773.53
2023-02-19T22:05:17.366Z,101782.84
2023-02-19T22:10:20.068Z,101775.91
2023-02-19T22:15:21.823Z,101765.91
2023-02-19T22:20:25.432Z,101753.69
2023-02-19T22:25:28.008Z,101746.34
2023-02-19T22:30:30.089Z,101730.00
2023-02-19T22:35:34.089Z,101738.25
2023-02-19T22:40:35.953Z,101741.22
2023-02-19T22:45:38.519Z,101744.09
2023-02-19T22:50:42.143Z,101749.03
2023-02-19T22:55:44.301Z,101763.09
2023-02-19T23:00:46.640Z,101762.38
2023-02-19T23:05:50.160Z,101755.06
2023-02-19T23:10:52.224Z,101753.03
2023-02-19T23:15:53.992Z,101753.81
2023-02-19T23:20:57.368Z,101751.13
2023-02-19T23:25:59.567Z,101747.13
2023-02-19T23:31:02.257Z,101761.66
2023-02-19T23:36:07.242Z,101752.19
2023-02-19T23:41:09.708Z,101758.09
2023-02-19T23:46:14.997Z,101750.88
2023-02-19T23:51:18.827Z,101736.69
2023-02-19T23:56:23.674Z,101727.59
